Time;durP1;ratioP1;P1;durP2;ratioP2;P2;SDS_P1;SDS_P2;PMS_P1;PMS_P2;Temp;Humidity;BMP_temperature;BMP_pressure;BME280_temperature;BME280_humidity;BME280_pressure;Samples;Min_cycle;Max_cycle;Signal;HPM_P1;HPM_P2
2021/01/02 00:02:32;;;;;;;12.43;6.73;;;;;;;;;;5057351;28;20879;-68
2021/01/02 00:05:07;;;;;;;9.40;6.40;;;;;;;;;;5057725;28;20468;-68
2021/01/02 00:07:56;;;;;;;7.60;5.40;;;;;;;;;;5057591;28;20500;-68
2021/01/02 00:10:25;;;;;;;8.93;6.03;;;;;;;;;;5032909;28;21053;-68
2021/01/02 00:12:59;;;;;;;12.07;6.37;;;;;;;;;;5057208;28;20453;-68
2021/01/02 00:15:31;;;;;;;10.23;6.90;;;;;;;;;;5057679;28;20465;-68
2021/01/02 00:18:04;;;;;;;10.73;6.43;;;;;;;;;;5057431;28;20499;-68
2021/01/02 00:20:43;;;;;;;10.87;6.30;;;;;;;;;;5057552;28;20477;-68
2021/01/02 00:23:14;;;;;;;10.27;6.70;;;;;;;;;;5057686;28;20532;-68
2021/01/02 00:25:44;;;;;;;11.20;6.70;;;;;;;;;;5061671;28;20469;-68
2021/01/02 00:28:17;;;;;;;9.63;6.20;;;;;;;;;;5061792;28;20446;-68
2021/01/02 00:30:59;;;;;;;10.27;7.27;;;;;;;;;;5063170;28;20559;-69
2021/01/02 00:33:38;;;;;;;10.97;7.40;;;;;;;;;;5029789;28;20501;-68
2021/01/02 00:36:10;;;;;;;14.37;7.17;;;;;;;;;;5063093;28;20449;-68
2021/01/02 00:38:39;;;;;;;10.63;6.50;;;;;;;;;;5062361;28;20497;-68
2021/01/02 00:41:06;;;;;;;9.97;6.30;;;;;;;;;;5061698;28;20451;-68
2021/01/02 00:43:33;;;;;;;12.70;7.90;;;;;;;;;;5061736;28;20449;-68
2021/01/02 00:46:01;;;;;;;11.07;6.97;;;;;;;;;;5061401;28;20491;-68
2021/01/02 00:48:31;;;;;;;10.67;6.97;;;;;;;;;;5060676;28;20959;-68
2021/01/02 00:51:00;;;;;;;11.47;6.47;;;;;;;;;;5061321;28;20536;-68
2021/01/02 00:53:46;;;;;;;13.97;7.30;;;;;;;;;;5061151;28;20454;-68
2021/01/02 00:56:25;;;;;;;11.33;6.20;;;;;;;;;;5061065;28;20467;-68
2021/01/02 00:59:10;;;;;;;9.17;6.70;;;;;;;;;;5060895;28;20451;-68
2021/01/02 01:01:40;;;;;;;9.70;5.97;;;;;;;;;;5060818;28;20463;-68
2021/01/02 01:04:25;;;;;;;11.60;7.47;;;;;;;;;;5060587;28;20443;-68
2021/01/02 01:06:55;;;;;;;9.97;6.97;;;;;;;;;;5060764;28;20444;-68
2021/01/02 01:09:24;;;;;;;10.90;7.27;;;;;;;;;;5060503;28;20824;-68
2021/01/02 01:11:53;;;;;;;8.97;6.50;;;;;;;;;;5060522;28;20516;-68
2021/01/02 01:14:20;;;;;;;10.13;6.70;;;;;;;;;;5060455;28;21010;-68
2021/01/02 01:16:50;;;;;;;13.17;7.43;;;;;;;;;;5061117;28;20437;-68
2021/01/02 01:19:19;;;;;;;13.13;7.13;;;;;;;;;;5060354;28;20453;-68
2021/01/02 01:21:51;;;;;;;12.77;8.20;;;;;;;;;;5060976;28;20444;-68
2021/01/02 01:24:23;;;;;;;10.20;7.10;;;;;;;;;;5060534;28;20469;-68
2021/01/02 01:27:02;;;;;;;10.03;7.10;;;;;;;;;;5060570;28;20451;-68
2021/01/02 01:29:40;;;;;;;13.27;7.20;;;;;;;;;;5060279;28;20567;-68
2021/01/02 01:32:07;;;;;;;12.27;6.87;;;;;;;;;;5060383;28;20445;-68
2021/01/02 01:34:34;;;;;;;14.10;8.43;;;;;;;;;;5059781;28;20492;-68
2021/01/02 01:37:03;;;;;;;11.43;7.53;;;;;;;;;;5059356;28;20565;-68
2021/01/02 01:39:31;;;;;;;12.57;7.30;;;;;;;;;;5060390;28;20503;-68
2021/01/02 01:41:59;;;;;;;11.07;6.93;;;;;;;;;;5060213;28;20549;-68
2021/01/02 01:44:38;;;;;;;11.07;6.97;;;;;;;;;;5060205;28;20552;-68
2021/01/02 01:47:11;;;;;;;11.53;7.10;;;;;;;;;;5060040;28;20441;-68
2021/01/02 01:49:56;;;;;;;11.63;6.77;;;;;;;;;;5060181;28;20491;-68
2021/01/02 01:52:29;;;;;;;10.90;7.57;;;;;;;;;;5050511;28;20487;-68
2021/01/02 01:55:04;;;;;;;12.00;7.73;;;;;;;;;;5059735;28;20487;-68
2021/01/02 01:57:36;;;;;;;13.33;6.90;;;;;;;;;;5060050;28;20445;-68
2021/01/02 02:00:12;;;;;;;9.87;7.00;;;;;;;;;;5059816;28;20454;-68
2021/01/02 02:02:53;;;;;;;9.80;7.17;;;;;;;;;;5059483;28;20437;-68
2021/01/02 02:05:21;;;;;;;11.03;6.93;;;;;;;;;;5059701;28;20477;-68
2021/01/02 02:07:58;;;;;;;10.37;6.03;;;;;;;;;;5059844;28;20449;-68
2021/01/02 02:10:27;;;;;;;9.80;6.40;;;;;;;;;;5059538;28;20481;-68
2021/01/02 02:12:56;;;;;;;10.87;6.70;;;;;;;;;;5059287;28;20817;-68
2021/01/02 02:15:23;;;;;;;10.70;6.70;;;;;;;;;;5059377;28;20466;-68
2021/01/02 02:17:53;;;;;;;12.77;7.67;;;;;;;;;;5059343;28;20446;-68
2021/01/02 02:20:22;;;;;;;10.93;6.93;;;;;;;;;;5059460;28;20893;-68
2021/01/02 02:23:00;;;;;;;12.80;7.67;;;;;;;;;;5059487;28;20448;-68
2021/01/02 02:25:36;;;;;;;11.10;7.00;;;;;;;;;;5059090;28;20469;-68
2021/01/02 02:28:09;;;;;;;9.90;6.63;;;;;;;;;;5059138;28;20872;-68
2021/01/02 02:30:37;;;;;;;13.90;8.00;;;;;;;;;;5059161;28;20491;-68
2021/01/02 02:33:07;;;;;;;12.37;7.00;;;;;;;;;;5058945;28;20900;-68
2021/01/02 02:35:36;;;;;;;13.00;7.90;;;;;;;;;;5058891;28;20461;-68
2021/01/02 02:38:03;;;;;;;11.23;7.23;;;;;;;;;;5058976;28;20480;-68
2021/01/02 02:40:32;;;;;;;12.00;6.97;;;;;;;;;;5058902;28;20519;-68
2021/01/02 02:43:00;;;;;;;11.60;6.83;;;;;;;;;;5059185;28;20446;-68
2021/01/02 02:45:29;;;;;;;14.27;8.07;;;;;;;;;;5058583;28;20806;-68
2021/01/02 02:47:57;;;;;;;12.80;7.10;;;;;;;;;;5058487;28;20441;-68
2021/01/02 02:50:27;;;;;;;14.03;7.60;;;;;;;;;;5058902;28;20999;-68
2021/01/02 02:52:59;;;;;;;11.90;7.20;;;;;;;;;;5058788;28;20567;-68
2021/01/02 02:55:26;;;;;;;10.33;7.33;;;;;;;;;;5058699;28;20793;-68
2021/01/02 02:57:53;;;;;;;12.07;7.53;;;;;;;;;;5058753;28;21014;-68
2021/01/02 03:00:21;;;;;;;11.97;7.50;;;;;;;;;;5058706;28;20456;-68
2021/01/02 03:02:50;;;;;;;13.47;7.57;;;;;;;;;;5058473;28;20518;-68
2021/01/02 03:05:17;;;;;;;12.70;8.17;;;;;;;;;;5058401;28;20469;-68
2021/01/02 03:07:45;;;;;;;12.17;7.20;;;;;;;;;;5058676;28;20487;-68
2021/01/02 03:10:13;;;;;;;10.77;7.23;;;;;;;;;;5058346;28;20851;-68
2021/01/02 03:12:44;;;;;;;11.73;7.57;;;;;;;;;;5058173;28;20445;-68
2021/01/02 03:15:12;;;;;;;13.70;7.80;;;;;;;;;;5058512;28;20556;-68
2021/01/02 03:17:39;;;;;;;10.77;6.70;;;;;;;;;;5058224;28;20463;-68
2021/01/02 03:20:11;;;;;;;10.77;6.40;;;;;;;;;;5058519;28;20540;-68
2021/01/02 03:22:39;;;;;;;14.10;8.60;;;;;;;;;;5058239;28;20952;-68
2021/01/02 03:25:07;;;;;;;9.83;6.93;;;;;;;;;;5058174;28;20483;-68
2021/01/02 03:27:34;;;;;;;15.17;8.53;;;;;;;;;;5057559;28;20536;-68
2021/01/02 03:30:01;;;;;;;12.57;7.37;;;;;;;;;;5058320;28;20489;-68
2021/01/02 03:32:28;;;;;;;14.13;8.43;;;;;;;;;;5057922;28;20442;-68
2021/01/02 03:34:55;;;;;;;12.57;7.67;;;;;;;;;;5057855;28;20469;-68
2021/01/02 03:37:24;;;;;;;18.07;8.90;;;;;;;;;;5057853;28;20503;-68
2021/01/02 03:39:51;;;;;;;13.97;8.63;;;;;;;;;;5057943;28;20449;-68
2021/01/02 03:42:18;;;;;;;16.43;9.27;;;;;;;;;;5057705;28;20532;-68
2021/01/02 03:44:45;;;;;;;15.50;8.63;;;;;;;;;;5057803;28;20470;-68
2021/01/02 03:47:12;;;;;;;16.07;8.40;;;;;;;;;;5057584;28;20517;-68
2021/01/02 03:49:39;;;;;;;13.47;8.23;;;;;;;;;;5058204;28;20487;-68
2021/01/02 03:52:06;;;;;;;12.73;7.87;;;;;;;;;;5057872;28;20467;-68
2021/01/02 03:54:34;;;;;;;11.40;7.37;;;;;;;;;;5059190;28;20469;-68
2021/01/02 03:57:01;;;;;;;18.70;8.33;;;;;;;;;;5059195;28;20503;-68
2021/01/02 03:59:28;;;;;;;14.50;8.70;;;;;;;;;;5058347;28;20443;-68
2021/01/02 04:01:56;;;;;;;14.07;9.07;;;;;;;;;;5059321;28;20541;-68
2021/01/02 04:04:26;;;;;;;12.50;7.70;;;;;;;;;;5057992;28;20463;-68
2021/01/02 04:06:53;;;;;;;13.40;8.33;;;;;;;;;;5057819;28;20485;-68
2021/01/02 04:09:20;;;;;;;14.30;8.10;;;;;;;;;;5057515;28;20858;-68
2021/01/02 04:11:49;;;;;;;12.90;8.13;;;;;;;;;;5057473;28;20433;-68
2021/01/02 04:14:16;;;;;;;14.77;9.10;;;;;;;;;;5057393;28;20491;-68
2021/01/02 04:16:43;;;;;;;15.07;8.73;;;;;;;;;;5057785;28;20445;-68
2021/01/02 04:19:11;;;;;;;14.33;8.93;;;;;;;;;;5057161;28;20445;-68
2021/01/02 04:21:37;;;;;;;12.63;8.57;;;;;;;;;;5064416;28;20440;-68
2021/01/02 04:24:08;;;;;;;12.60;7.67;;;;;;;;;;5059600;28;21000;-68
2021/01/02 04:26:35;;;;;;;12.30;8.07;;;;;;;;;;5053238;28;20491;-68
2021/01/02 04:29:03;;;;;;;14.87;8.47;;;;;;;;;;5056072;28;20441;-68
2021/01/02 04:31:35;;;;;;;15.57;9.13;;;;;;;;;;5056008;28;20820;-68
2021/01/02 04:34:02;;;;;;;11.80;8.00;;;;;;;;;;5053108;28;20806;-68
2021/01/02 04:36:29;;;;;;;12.87;8.20;;;;;;;;;;5054608;28;20445;-68
2021/01/02 04:38:56;;;;;;;14.33;8.57;;;;;;;;;;5055698;28;20477;-68
2021/01/02 04:41:23;;;;;;;18.33;9.63;;;;;;;;;;5055901;28;20502;-69
2021/01/02 04:43:51;;;;;;;13.87;8.13;;;;;;;;;;5055971;28;20442;-67
2021/01/02 04:46:20;;;;;;;13.23;7.63;;;;;;;;;;5063256;28;20437;-68
2021/01/02 04:48:48;;;;;;;16.73;8.37;;;;;;;;;;5060283;28;20509;-67
2021/01/02 04:51:16;;;;;;;13.10;8.80;;;;;;;;;;5056006;28;20532;-68
2021/01/02 04:53:43;;;;;;;13.50;8.80;;;;;;;;;;5055609;28;20437;-68
2021/01/02 04:56:10;;;;;;;11.27;7.87;;;;;;;;;;5055644;28;20945;-68
2021/01/02 04:58:39;;;;;;;15.37;8.53;;;;;;;;;;5058940;28;20919;-68
2021/01/02 05:01:07;;;;;;;15.53;9.53;;;;;;;;;;5065287;28;20940;-68
2021/01/02 05:03:36;;;;;;;17.07;9.70;;;;;;;;;;5067790;28;20498;-68
2021/01/02 05:06:03;;;;;;;15.50;9.00;;;;;;;;;;5066388;28;20540;-68
2021/01/02 05:08:31;;;;;;;12.47;7.97;;;;;;;;;;5063083;28;20448;-68
2021/01/02 05:10:58;;;;;;;13.97;8.73;;;;;;;;;;5067691;28;20564;-68
2021/01/02 05:13:29;;;;;;;13.90;8.53;;;;;;;;;;5071359;28;20560;-68
2021/01/02 05:15:57;;;;;;;15.13;8.70;;;;;;;;;;5071665;28;20487;-68
2021/01/02 05:18:25;;;;;;;15.50;8.77;;;;;;;;;;5070490;28;20445;-68
2021/01/02 05:21:06;;;;;;;15.00;8.53;;;;;;;;;;5066402;28;20477;-68
2021/01/02 05:23:33;;;;;;;15.67;9.40;;;;;;;;;;5066696;28;20440;-68
2021/01/02 05:26:07;;;;;;;14.60;8.97;;;;;;;;;;5067861;28;20956;-68
2021/01/02 05:28:34;;;;;;;16.17;9.27;;;;;;;;;;5067279;28;20883;-68
2021/01/02 05:31:12;;;;;;;15.37;9.53;;;;;;;;;;5062372;28;20480;-68
2021/01/02 05:33:39;;;;;;;14.87;8.93;;;;;;;;;;5059893;28;20436;-68
2021/01/02 05:36:07;;;;;;;14.30;8.60;;;;;;;;;;5060121;28;20465;-68
2021/01/02 05:38:39;;;;;;;16.20;8.90;;;;;;;;;;5059865;28;20484;-68
2021/01/02 05:41:06;;;;;;;13.40;8.23;;;;;;;;;;5059919;28;20529;-68
2021/01/02 05:43:33;;;;;;;11.40;8.20;;;;;;;;;;5059990;28;20451;-68
2021/01/02 05:46:05;;;;;;;14.40;8.50;;;;;;;;;;5060186;28;20487;-68
2021/01/02 05:48:32;;;;;;;12.00;8.23;;;;;;;;;;5059652;28;20872;-68
2021/01/02 05:51:00;;;;;;;13.77;8.83;;;;;;;;;;5059836;28;20892;-68
2021/01/02 05:53:29;;;;;;;17.40;7.97;;;;;;;;;;5059837;28;20453;-68
2021/01/02 05:56:00;;;;;;;13.30;8.23;;;;;;;;;;5059846;28;20493;-68
2021/01/02 05:58:28;;;;;;;16.13;8.57;;;;;;;;;;5059752;28;20524;-68
2021/01/02 06:01:17;;;;;;;12.80;8.23;;;;;;;;;;5059719;28;20511;-68
2021/01/02 06:03:44;;;;;;;11.10;7.47;;;;;;;;;;5055156;28;20481;-68
2021/01/02 06:06:12;;;;;;;16.43;8.67;;;;;;;;;;5059821;28;20469;-68
2021/01/02 06:08:42;;;;;;;15.60;8.90;;;;;;;;;;5059623;28;20564;-68
2021/01/02 06:11:11;;;;;;;13.57;7.90;;;;;;;;;;5059661;28;20497;-68
2021/01/02 06:13:39;;;;;;;12.33;8.27;;;;;;;;;;5059333;28;20805;-68
2021/01/02 06:16:07;;;;;;;16.30;9.40;;;;;;;;;;5059593;28;20497;-68
2021/01/02 06:18:35;;;;;;;15.00;8.50;;;;;;;;;;5059204;28;20453;-68
2021/01/02 06:21:03;;;;;;;14.77;8.83;;;;;;;;;;5059009;28;20809;-68
2021/01/02 06:23:30;;;;;;;16.63;9.50;;;;;;;;;;5059477;28;20964;-68
2021/01/02 06:25:57;;;;;;;18.17;9.70;;;;;;;;;;5059287;28;20477;-68
2021/01/02 06:28:26;;;;;;;15.87;8.60;;;;;;;;;;5059951;28;20533;-68
2021/01/02 06:31:03;;;;;;;14.67;8.60;;;;;;;;;;5059051;28;21021;-68
2021/01/02 06:33:30;;;;;;;13.60;8.87;;;;;;;;;;5059190;28;20520;-68
2021/01/02 06:35:57;;;;;;;17.83;9.70;;;;;;;;;;5058819;28;20583;-68
2021/01/02 06:38:25;;;;;;;15.50;8.50;;;;;;;;;;5058876;28;20481;-68
2021/01/02 06:40:53;;;;;;;14.23;8.40;;;;;;;;;;5058193;28;21361;-68
2021/01/02 06:43:22;;;;;;;18.80;9.03;;;;;;;;;;5059126;28;20461;-68
2021/01/02 06:45:56;;;;;;;15.50;8.53;;;;;;;;;;5059031;28;20466;-68
2021/01/02 06:48:35;;;;;;;14.20;9.33;;;;;;;;;;5058826;28;20501;-68
2021/01/02 06:51:03;;;;;;;16.40;8.60;;;;;;;;;;5058702;28;20480;-68
2021/01/02 06:53:31;;;;;;;14.20;9.00;;;;;;;;;;5058961;28;20449;-68
2021/01/02 06:55:59;;;;;;;16.33;8.97;;;;;;;;;;5058759;28;20480;-68
2021/01/02 06:58:35;;;;;;;16.03;8.83;;;;;;;;;;5058889;28;20446;-68
2021/01/02 07:01:02;;;;;;;16.80;9.20;;;;;;;;;;5058564;28;20459;-68
2021/01/02 07:03:48;;;;;;;14.50;8.27;;;;;;;;;;5058229;28;20455;-68
2021/01/02 07:06:22;;;;;;;12.90;8.87;;;;;;;;;;5058776;28;20461;-68
2021/01/02 07:08:50;;;;;;;16.00;9.10;;;;;;;;;;5058711;28;20508;-68
2021/01/02 07:11:24;;;;;;;15.23;8.37;;;;;;;;;;5058173;28;20988;-68
2021/01/02 07:14:17;;;;;;;13.70;8.33;;;;;;;;;;5053664;28;20519;-68
2021/01/02 07:16:45;;;;;;;12.93;8.20;;;;;;;;;;5056227;28;20513;-67
2021/01/02 07:19:26;;;;;;;16.13;9.17;;;;;;;;;;5055670;28;20932;-68
2021/01/02 07:21:58;;;;;;;17.17;9.20;;;;;;;;;;5055706;28;20496;-68
2021/01/02 07:24:25;;;;;;;13.40;8.40;;;;;;;;;;5056846;28;20461;-69
2021/01/02 07:26:56;;;;;;;13.23;7.83;;;;;;;;;;5058518;28;20448;-68
2021/01/02 07:29:25;;;;;;;15.57;8.47;;;;;;;;;;5058347;28;20803;-68
2021/01/02 07:31:52;;;;;;;12.93;7.87;;;;;;;;;;5057952;28;20559;-68
2021/01/02 07:34:22;;;;;;;13.57;8.30;;;;;;;;;;5056569;28;20988;-68
2021/01/02 07:36:52;;;;;;;16.70;9.77;;;;;;;;;;5055231;28;20437;-68
2021/01/02 07:39:19;;;;;;;15.93;10.00;;;;;;;;;;5057492;28;20437;-67
2021/01/02 07:41:46;;;;;;;16.27;9.07;;;;;;;;;;5057870;28;20448;-67
2021/01/02 07:44:13;;;;;;;12.93;8.00;;;;;;;;;;5057857;28;20552;-67
2021/01/02 07:46:44;;;;;;;15.10;8.10;;;;;;;;;;5057840;28;20441;-66
2021/01/02 07:49:12;;;;;;;13.40;8.40;;;;;;;;;;5057565;28;20450;-67
2021/01/02 07:51:39;;;;;;;14.40;8.10;;;;;;;;;;5057432;28;22012;-67
2021/01/02 07:54:06;;;;;;;13.57;7.20;;;;;;;;;;5057621;28;20801;-67
2021/01/02 07:56:36;;;;;;;11.00;7.63;;;;;;;;;;5057759;28;20463;-66
2021/01/02 07:59:20;;;;;;;14.20;7.50;;;;;;;;;;5057560;28;20457;-66
2021/01/02 08:01:56;;;;;;;12.33;6.97;;;;;;;;;;5056980;28;20441;-66
2021/01/02 08:04:24;;;;;;;12.90;8.47;;;;;;;;;;5057800;28;20457;-67
2021/01/02 08:06:52;;;;;;;11.77;7.00;;;;;;;;;;5054854;28;20453;-67
2021/01/02 08:09:19;;;;;;;10.43;6.40;;;;;;;;;;5057135;28;20429;-67
2021/01/02 08:12:00;;;;;;;12.47;7.57;;;;;;;;;;5056796;28;20480;-66
2021/01/02 08:14:29;;;;;;;12.83;7.27;;;;;;;;;;5062968;28;20991;-67
2021/01/02 08:17:04;;;;;;;12.23;7.90;;;;;;;;;;5059336;28;20451;-66
2021/01/02 08:19:32;;;;;;;13.17;8.07;;;;;;;;;;5056640;28;20448;-66
2021/01/02 08:22:00;;;;;;;12.60;7.53;;;;;;;;;;5057360;28;20452;-66
2021/01/02 08:24:27;;;;;;;13.87;8.03;;;;;;;;;;5057480;28;20466;-67
2021/01/02 08:26:54;;;;;;;12.80;7.30;;;;;;;;;;5057379;28;20457;-66
2021/01/02 08:29:22;;;;;;;12.30;7.57;;;;;;;;;;5057598;28;20524;-67
2021/01/02 08:31:50;;;;;;;12.87;7.90;;;;;;;;;;5057232;28;20491;-66
2021/01/02 08:34:28;;;;;;;12.13;7.23;;;;;;;;;;5057401;28;20547;-67
2021/01/02 08:37:05;;;;;;;14.17;8.07;;;;;;;;;;5057047;28;20449;-67
2021/01/02 08:39:33;;;;;;;13.30;8.80;;;;;;;;;;5057591;28;20453;-67
2021/01/02 08:42:00;;;;;;;13.50;7.20;;;;;;;;;;5057365;28;20445;-66
2021/01/02 08:44:28;;;;;;;11.53;7.70;;;;;;;;;;5054681;28;20479;-66
2021/01/02 08:46:56;;;;;;;12.10;7.83;;;;;;;;;;5060787;28;20441;-67
2021/01/02 08:49:40;;;;;;;15.23;7.70;;;;;;;;;;5060942;28;20445;-67
2021/01/02 08:52:21;;;;;;;12.83;7.50;;;;;;;;;;5060975;28;20907;-66
2021/01/02 08:54:49;;;;;;;11.10;8.00;;;;;;;;;;5059640;28;20528;-66
2021/01/02 08:57:25;;;;;;;13.57;7.40;;;;;;;;;;5044051;28;20461;-66
2021/01/02 09:00:04;;;;;;;12.83;7.60;;;;;;;;;;5046798;28;20538;-66
2021/01/02 09:02:31;;;;;;;14.47;7.90;;;;;;;;;;5050412;28;20452;-67
2021/01/02 09:05:03;;;;;;;14.07;7.50;;;;;;;;;;5041302;28;20897;-66
2021/01/02 09:07:30;;;;;;;13.83;7.43;;;;;;;;;;5041201;28;20918;-67
2021/01/02 09:10:11;;;;;;;13.00;8.03;;;;;;;;;;5056812;28;20453;-67
2021/01/02 09:12:39;;;;;;;14.17;8.60;;;;;;;;;;5067503;28;20433;-66
2021/01/02 09:15:06;;;;;;;11.50;7.30;;;;;;;;;;5064228;28;20465;-67
2021/01/02 09:17:46;;;;;;;15.83;7.83;;;;;;;;;;5059454;28;20520;-67
2021/01/02 09:20:20;;;;;;;15.43;8.40;;;;;;;;;;5059191;28;20441;-68
2021/01/02 09:22:53;;;;;;;14.40;8.03;;;;;;;;;;5058530;28;20955;-68
2021/01/02 09:25:26;;;;;;;14.50;8.43;;;;;;;;;;5060566;28;20523;-69
2021/01/02 09:27:54;;;;;;;13.37;8.10;;;;;;;;;;5060275;28;20441;-69
2021/01/02 09:30:22;;;;;;;15.17;8.13;;;;;;;;;;5060422;28;20481;-69
2021/01/02 09:32:49;;;;;;;11.67;7.70;;;;;;;;;;5060354;28;20512;-67
2021/01/02 09:35:17;;;;;;;13.73;7.63;;;;;;;;;;5060098;28;20814;-68
2021/01/02 09:37:44;;;;;;;12.23;7.77;;;;;;;;;;5059354;28;20835;-67
2021/01/02 09:40:14;;;;;;;11.97;7.63;;;;;;;;;;5059519;28;20949;-67
2021/01/02 09:42:41;;;;;;;14.97;8.87;;;;;;;;;;5059085;28;20438;-67
2021/01/02 09:45:08;;;;;;;11.63;7.67;;;;;;;;;;5056600;28;20463;-68
2021/01/02 09:47:35;;;;;;;14.40;7.40;;;;;;;;;;5056813;28;20520;-68
2021/01/02 09:50:04;;;;;;;15.87;7.87;;;;;;;;;;5058821;28;20822;-68
2021/01/02 09:52:31;;;;;;;13.10;8.47;;;;;;;;;;5059354;28;20434;-69
2021/01/02 09:54:58;;;;;;;11.97;7.27;;;;;;;;;;5059426;28;20480;-69
2021/01/02 09:57:26;;;;;;;13.70;7.47;;;;;;;;;;5058215;28;20520;-68
2021/01/02 09:59:53;;;;;;;11.33;7.30;;;;;;;;;;5059979;28;20469;-69
2021/01/02 10:02:20;;;;;;;16.40;8.03;;;;;;;;;;5059812;28;20445;-69
2021/01/02 10:04:49;;;;;;;11.97;7.30;;;;;;;;;;5059810;28;20475;-68
2021/01/02 10:07:17;;;;;;;12.93;8.03;;;;;;;;;;5059968;28;20441;-68
2021/01/02 10:09:45;;;;;;;13.60;7.40;;;;;;;;;;5059827;28;20480;-68
2021/01/02 10:12:13;;;;;;;13.67;8.03;;;;;;;;;;5059736;28;21071;-69
2021/01/02 10:14:41;;;;;;;12.03;7.67;;;;;;;;;;5059517;28;20890;-68
2021/01/02 10:17:08;;;;;;;12.53;7.60;;;;;;;;;;5059580;28;20449;-69
2021/01/02 10:19:35;;;;;;;12.13;7.57;;;;;;;;;;5059205;28;20964;-67
2021/01/02 10:22:03;;;;;;;17.60;8.53;;;;;;;;;;5059162;28;20448;-67
2021/01/02 10:24:30;;;;;;;13.20;7.93;;;;;;;;;;5058918;28;20818;-67
2021/01/02 10:26:57;;;;;;;11.27;6.90;;;;;;;;;;5059016;28;20442;-67
2021/01/02 10:29:24;;;;;;;13.50;8.40;;;;;;;;;;5059042;28;20448;-67
2021/01/02 10:31:52;;;;;;;11.70;7.00;;;;;;;;;;5056001;28;20473;-68
2021/01/02 10:34:19;;;;;;;11.83;7.20;;;;;;;;;;5059097;28;20851;-67
2021/01/02 10:36:46;;;;;;;12.57;7.60;;;;;;;;;;5059326;28;20488;-68
2021/01/02 10:39:13;;;;;;;11.97;7.43;;;;;;;;;;5058855;28;20479;-67
2021/01/02 10:41:40;;;;;;;12.97;7.30;;;;;;;;;;5058747;28;20441;-67
2021/01/02 10:44:07;;;;;;;14.50;8.50;;;;;;;;;;5059126;28;20461;-67
2021/01/02 10:46:34;;;;;;;13.67;7.80;;;;;;;;;;5059088;28;20453;-68
2021/01/02 10:49:02;;;;;;;14.77;8.27;;;;;;;;;;5058571;28;20449;-67
2021/01/02 10:51:29;;;;;;;11.67;7.83;;;;;;;;;;5058868;28;20483;-67
2021/01/02 10:53:56;;;;;;;10.17;6.97;;;;;;;;;;5059134;28;20441;-67
2021/01/02 10:56:23;;;;;;;12.93;7.40;;;;;;;;;;5058903;28;20976;-67
2021/01/02 10:58:50;;;;;;;16.07;8.37;;;;;;;;;;5058762;28;20440;-68
2021/01/02 11:01:17;;;;;;;14.93;8.13;;;;;;;;;;5058390;28;20824;-68
2021/01/02 11:03:44;;;;;;;12.90;8.30;;;;;;;;;;5058491;28;20454;-67
2021/01/02 11:06:15;;;;;;;11.30;7.13;;;;;;;;;;5058666;28;20476;-68
2021/01/02 11:08:42;;;;;;;11.63;7.30;;;;;;;;;;5058209;28;20852;-67
2021/01/02 11:11:17;;;;;;;11.83;6.77;;;;;;;;;;5058518;28;20864;-68
2021/01/02 11:13:44;;;;;;;10.73;7.27;;;;;;;;;;5058592;28;20479;-67
2021/01/02 11:16:11;;;;;;;12.60;7.83;;;;;;;;;;5058329;28;20473;-67
2021/01/02 11:18:41;;;;;;;13.50;7.73;;;;;;;;;;5058037;28;20945;-67
2021/01/02 11:21:10;;;;;;;13.90;8.27;;;;;;;;;;5058259;28;20811;-67
2021/01/02 11:23:38;;;;;;;12.27;7.97;;;;;;;;;;5058441;28;21628;-67
2021/01/02 11:26:09;;;;;;;15.73;9.00;;;;;;;;;;5057989;28;20497;-67
2021/01/02 11:28:36;;;;;;;12.67;7.77;;;;;;;;;;5058307;28;20956;-68
2021/01/02 11:31:03;;;;;;;13.90;8.23;;;;;;;;;;5058013;28;20493;-68
2021/01/02 11:33:30;;;;;;;12.90;8.43;;;;;;;;;;5057760;28;20457;-67
2021/01/02 11:35:57;;;;;;;12.37;7.40;;;;;;;;;;5058125;28;20500;-67
2021/01/02 11:38:24;;;;;;;11.93;7.20;;;;;;;;;;5057809;28;20484;-67
2021/01/02 11:40:52;;;;;;;13.33;8.50;;;;;;;;;;5057866;28;20473;-68
2021/01/02 11:43:19;;;;;;;15.17;8.33;;;;;;;;;;5058079;28;20446;-67
2021/01/02 11:45:46;;;;;;;13.03;7.97;;;;;;;;;;5058124;28;20552;-68
2021/01/02 11:48:14;;;;;;;12.67;7.83;;;;;;;;;;5057437;28;20532;-68
2021/01/02 11:50:41;;;;;;;10.80;7.40;;;;;;;;;;5057984;28;21000;-68
2021/01/02 11:53:08;;;;;;;11.00;7.13;;;;;;;;;;5057690;28;20441;-68
2021/01/02 11:55:35;;;;;;;15.63;7.77;;;;;;;;;;5057602;28;20469;-68
2021/01/02 11:58:04;;;;;;;16.03;8.17;;;;;;;;;;5056700;28;20437;-68
2021/01/02 12:00:30;;;;;;;12.17;7.80;;;;;;;;;;5057527;28;20450;-68
2021/01/02 12:02:58;;;;;;;15.73;9.13;;;;;;;;;;5057080;28;20448;-68
2021/01/02 12:05:25;;;;;;;14.57;8.30;;;;;;;;;;5055938;28;20906;-67
2021/01/02 12:07:52;;;;;;;12.93;7.43;;;;;;;;;;5057092;28;20467;-68
2021/01/02 12:10:19;;;;;;;13.30;8.03;;;;;;;;;;5057327;28;20988;-68
2021/01/02 12:12:53;;;;;;;13.33;8.10;;;;;;;;;;5056727;28;20434;-67
2021/01/02 12:15:21;;;;;;;13.03;7.87;;;;;;;;;;5054959;28;20906;-67
2021/01/02 12:17:48;;;;;;;12.33;8.20;;;;;;;;;;5056796;28;20470;-67
2021/01/02 12:20:15;;;;;;;10.67;7.00;;;;;;;;;;5058853;28;21003;-68
2021/01/02 12:22:43;;;;;;;13.43;8.13;;;;;;;;;;5061782;28;20505;-66
2021/01/02 12:25:10;;;;;;;12.73;7.10;;;;;;;;;;5061229;28;20453;-67
2021/01/02 12:27:37;;;;;;;11.53;7.20;;;;;;;;;;5061055;28;20433;-67
2021/01/02 12:30:05;;;;;;;10.63;7.23;;;;;;;;;;5061308;28;20490;-66
2021/01/02 12:32:33;;;;;;;11.43;7.20;;;;;;;;;;5060654;28;20882;-67
2021/01/02 12:35:00;;;;;;;13.77;7.77;;;;;;;;;;5058524;28;20544;-66
2021/01/02 12:37:27;;;;;;;14.17;7.83;;;;;;;;;;5060842;28;20832;-68
2021/01/02 12:39:54;;;;;;;13.17;7.37;;;;;;;;;;5060796;28;20520;-66
2021/01/02 12:42:21;;;;;;;13.40;7.80;;;;;;;;;;5058407;28;20450;-67
2021/01/02 12:44:49;;;;;;;12.20;6.67;;;;;;;;;;5060914;28;21006;-67
2021/01/02 12:47:18;;;;;;;12.87;7.63;;;;;;;;;;5060749;28;20437;-67
2021/01/02 12:49:46;;;;;;;12.33;7.03;;;;;;;;;;5060745;28;20448;-67
2021/01/02 12:52:14;;;;;;;12.67;7.40;;;;;;;;;;5059806;28;20481;-68
2021/01/02 12:54:42;;;;;;;10.73;6.80;;;;;;;;;;5059547;28;20469;-67
2021/01/02 12:57:09;;;;;;;10.47;6.90;;;;;;;;;;5061145;28;20540;-69
2021/01/02 12:59:37;;;;;;;11.53;7.17;;;;;;;;;;5060988;28;20501;-69
2021/01/02 13:02:05;;;;;;;12.60;7.13;;;;;;;;;;5060694;28;20811;-68
2021/01/02 13:04:32;;;;;;;12.53;7.63;;;;;;;;;;5060876;28;20457;-68
2021/01/02 13:07:01;;;;;;;13.17;7.07;;;;;;;;;;5060815;28;20445;-69
2021/01/02 13:09:28;;;;;;;12.90;6.97;;;;;;;;;;5060824;28;20862;-69
2021/01/02 13:11:56;;;;;;;12.57;6.87;;;;;;;;;;5060013;28;20487;-69
2021/01/02 13:14:24;;;;;;;10.43;6.70;;;;;;;;;;5066490;28;20804;-69
2021/01/02 13:16:52;;;;;;;11.37;6.90;;;;;;;;;;5070716;28;20434;-69
2021/01/02 13:19:19;;;;;;;11.67;7.13;;;;;;;;;;5065862;28;20442;-70
2021/01/02 13:21:50;;;;;;;14.63;7.87;;;;;;;;;;5070121;28;20494;-69
2021/01/02 13:24:18;;;;;;;13.23;8.17;;;;;;;;;;5067977;28;20472;-69
2021/01/02 13:26:48;;;;;;;13.53;7.87;;;;;;;;;;5066597;28;20442;-69
2021/01/02 13:29:16;;;;;;;12.43;7.57;;;;;;;;;;5060674;28;20449;-69
2021/01/02 13:31:43;;;;;;;11.23;7.37;;;;;;;;;;5059832;28;20575;-69
2021/01/02 13:34:10;;;;;;;10.77;6.83;;;;;;;;;;5060509;28;20525;-70
2021/01/02 13:36:39;;;;;;;10.53;7.13;;;;;;;;;;5060924;28;20445;-69
2021/01/02 13:39:07;;;;;;;11.10;6.53;;;;;;;;;;5061446;28;20480;-69
2021/01/02 13:41:35;;;;;;;13.57;7.83;;;;;;;;;;5062001;28;20924;-69
2021/01/02 13:44:02;;;;;;;12.93;7.53;;;;;;;;;;5061401;28;20496;-70
2021/01/02 13:46:29;;;;;;;11.77;7.87;;;;;;;;;;5060476;28;20951;-69
2021/01/02 13:48:56;;;;;;;11.87;7.47;;;;;;;;;;5047403;28;20497;-69
2021/01/02 13:51:25;;;;;;;14.07;7.83;;;;;;;;;;5059945;28;20485;-69
2021/01/02 13:53:52;;;;;;;13.03;7.17;;;;;;;;;;5060154;28;20452;-69
2021/01/02 13:56:20;;;;;;;12.67;7.23;;;;;;;;;;5060407;28;20484;-69
2021/01/02 13:58:48;;;;;;;12.77;7.70;;;;;;;;;;5060182;28;20536;-69
2021/01/02 14:01:17;;;;;;;8.90;6.27;;;;;;;;;;5059868;28;20460;-69
2021/01/02 14:03:44;;;;;;;10.83;6.73;;;;;;;;;;5058556;28;20939;-69
2021/01/02 14:06:12;;;;;;;11.87;7.10;;;;;;;;;;5057393;28;20453;-69
2021/01/02 14:08:42;;;;;;;11.93;7.00;;;;;;;;;;5056066;28;20967;-69
2021/01/02 14:11:09;;;;;;;11.30;7.00;;;;;;;;;;5059047;28;20495;-70
2021/01/02 14:13:36;;;;;;;10.37;6.23;;;;;;;;;;5059795;28;20442;-69
2021/01/02 14:16:08;;;;;;;10.87;6.67;;;;;;;;;;5059153;28;20614;-69
2021/01/02 14:18:35;;;;;;;12.57;6.83;;;;;;;;;;5059166;28;20933;-69
2021/01/02 14:21:03;;;;;;;11.03;6.13;;;;;;;;;;5059383;28;20545;-70
2021/01/02 14:23:30;;;;;;;9.37;5.90;;;;;;;;;;5059607;28;20445;-70
2021/01/02 14:25:57;;;;;;;10.93;6.17;;;;;;;;;;5059077;28;20469;-67
2021/01/02 14:28:24;;;;;;;11.73;7.07;;;;;;;;;;5058969;28;20447;-69
2021/01/02 14:30:51;;;;;;;10.13;6.20;;;;;;;;;;5058918;28;20454;-67
2021/01/02 14:33:19;;;;;;;10.70;6.57;;;;;;;;;;5059234;28;20452;-67
2021/01/02 14:35:46;;;;;;;11.10;6.50;;;;;;;;;;5059115;28;20485;-67
2021/01/02 14:38:13;;;;;;;10.30;6.30;;;;;;;;;;5059086;28;20557;-67
2021/01/02 14:40:40;;;;;;;9.93;6.70;;;;;;;;;;5058885;28;20441;-67
2021/01/02 14:43:07;;;;;;;11.40;7.00;;;;;;;;;;5058719;28;20455;-67
2021/01/02 14:45:34;;;;;;;13.90;6.40;;;;;;;;;;5058874;28;21015;-67